sensor_id;sensor_type;location;lat;lon;timestamp;pressure;altitude;pressure_sealevel;temperature;humidity
42289;BME280;30230;47.520;19.016;2023-07-24T00:01:40;98834.72;;;22.10;86.04
42289;BME280;30230;47.520;19.016;2023-07-24T00:03:41;98825.16;;;22.03;86.57
42289;BME280;30230;47.520;19.016;2023-07-24T00:05:41;98823.78;;;22.00;86.52
42289;BME280;30230;47.520;19.016;2023-07-24T00:07:42;98813.38;;;21.97;86.83
42289;BME280;30230;47.520;19.016;2023-07-24T00:09:42;98826.00;;;21.98;86.99
42289;BME280;30230;47.520;19.016;2023-07-24T00:11:42;98831.50;;;21.98;87.13
42289;BME280;30230;47.520;19.016;2023-07-24T00:13:44;98824.81;;;22.09;86.61
42289;BME280;30230;47.520;19.016;2023-07-24T00:15:44;98820.59;;;21.88;87.86
42289;BME280;30230;47.520;19.016;2023-07-24T00:17:45;98811.00;;;21.85;87.94
42289;BME280;30230;47.520;19.016;2023-07-24T00:19:45;98823.47;;;22.02;87.62
42289;BME280;30230;47.520;19.016;2023-07-24T00:21:46;98810.38;;;21.94;87.97
42289;BME280;30230;47.520;19.016;2023-07-24T00:23:46;98820.84;;;21.92;88.40
42289;BME280;30230;47.520;19.016;2023-07-24T00:25:46;98821.94;;;21.91;88.68
42289;BME280;30230;47.520;19.016;2023-07-24T00:27:47;98820.59;;;21.88;89.21
42289;BME280;30230;47.520;19.016;2023-07-24T00:29:47;98821.16;;;21.85;89.11
42289;BME280;30230;47.520;19.016;2023-07-24T00:31:48;98809.84;;;21.92;88.90
42289;BME280;30230;47.520;19.016;2023-07-24T00:33:48;98810.75;;;21.82;89.48
42289;BME280;30230;47.520;19.016;2023-07-24T00:35:48;98813.22;;;21.83;90.22
42289;BME280;30230;47.520;19.016;2023-07-24T00:37:49;98794.56;;;21.75;90.07
42289;BME280;30230;47.520;19.016;2023-07-24T00:39:49;98804.97;;;21.83;89.88
42289;BME280;30230;47.520;19.016;2023-07-24T00:41:50;98795.34;;;21.81;89.70
42289;BME280;30230;47.520;19.016;2023-07-24T00:43:50;98797.19;;;21.91;89.79
42289;BME280;30230;47.520;19.016;2023-07-24T00:45:50;98793.34;;;21.92;89.36
42289;BME280;30230;47.520;19.016;2023-07-24T00:47:51;98787.16;;;21.76;90.23
42289;BME280;30230;47.520;19.016;2023-07-24T00:49:52;98793.00;;;21.69;91.55
42289;BME280;30230;47.520;19.016;2023-07-24T00:51:53;98783.72;;;21.60;92.35
42289;BME280;30230;47.520;19.016;2023-07-24T00:53:58;98788.13;;;21.61;92.34
42289;BME280;30230;47.520;19.016;2023-07-24T00:56:00;98785.47;;;21.51;93.59
42289;BME280;30230;47.520;19.016;2023-07-24T00:58:01;98781.63;;;21.47;94.88
42289;BME280;30230;47.520;19.016;2023-07-24T01:00:02;98776.44;;;21.45;94.21
42289;BME280;30230;47.520;19.016;2023-07-24T01:02:04;98774.00;;;21.39;95.15
42289;BME280;30230;47.520;19.016;2023-07-24T01:04:05;98768.50;;;21.39;95.01
42289;BME280;30230;47.520;19.016;2023-07-24T01:06:06;98761.91;;;21.40;94.29
42289;BME280;30230;47.520;19.016;2023-07-24T01:08:07;98776.66;;;21.49;94.80
42289;BME280;30230;47.520;19.016;2023-07-24T01:10:08;98763.75;;;21.49;93.76
42289;BME280;30230;47.520;19.016;2023-07-24T01:14:36;98752.28;;;21.42;94.40
42289;BME280;30230;47.520;19.016;2023-07-24T01:16:42;98780.50;;;21.53;94.53
42289;BME280;30230;47.520;19.016;2023-07-24T01:18:44;98775.25;;;21.56;94.33
42289;BME280;30230;47.520;19.016;2023-07-24T01:20:53;98777.69;;;21.58;93.97
42289;BME280;30230;47.520;19.016;2023-07-24T01:23:09;98774.66;;;21.59;93.67
42289;BME280;30230;47.520;19.016;2023-07-24T01:25:33;98784.25;;;21.62;93.76
42289;BME280;30230;47.520;19.016;2023-07-24T01:27:44;98782.34;;;21.63;94.08
42289;BME280;30230;47.520;19.016;2023-07-24T01:29:45;98773.34;;;21.52;94.78
42289;BME280;30230;47.520;19.016;2023-07-24T01:31:45;98773.31;;;21.57;94.42
42289;BME280;30230;47.520;19.016;2023-07-24T01:33:45;98756.63;;;21.48;94.98
42289;BME280;30230;47.520;19.016;2023-07-24T01:35:48;98778.34;;;21.45;96.20
42289;BME280;30230;47.520;19.016;2023-07-24T01:37:51;98764.91;;;21.43;95.47
42289;BME280;30230;47.520;19.016;2023-07-24T01:39:52;98767.88;;;21.52;95.08
42289;BME280;30230;47.520;19.016;2023-07-24T01:41:53;98753.25;;;21.56;94.68
42289;BME280;30230;47.520;19.016;2023-07-24T01:43:54;98764.72;;;21.64;94.54
42289;BME280;30230;47.520;19.016;2023-07-24T01:45:54;98752.19;;;21.52;94.83
42289;BME280;30230;47.520;19.016;2023-07-24T01:47:55;98759.38;;;21.77;93.50
42289;BME280;30230;47.520;19.016;2023-07-24T01:49:56;98749.44;;;21.52;94.94
42289;BME280;30230;47.520;19.016;2023-07-24T01:51:56;98756.06;;;21.51;95.25
42289;BME280;30230;47.520;19.016;2023-07-24T01:53:57;98760.22;;;21.44;95.58
42289;BME280;30230;47.520;19.016;2023-07-24T01:55:58;98748.72;;;21.42;95.70
42289;BME280;30230;47.520;19.016;2023-07-24T01:57:58;98760.56;;;21.37;96.20
42289;BME280;30230;47.520;19.016;2023-07-24T01:59:59;98749.91;;;21.30;96.29
42289;BME280;30230;47.520;19.016;2023-07-24T02:01:59;98765.56;;;21.25;97.37
42289;BME280;30230;47.520;19.016;2023-07-24T02:03:59;98765.28;;;21.26;97.91
42289;BME280;30230;47.520;19.016;2023-07-24T02:06:00;98750.13;;;21.29;97.10
42289;BME280;30230;47.520;19.016;2023-07-24T02:08:01;98752.72;;;21.15;97.96
42289;BME280;30230;47.520;19.016;2023-07-24T02:10:01;98757.59;;;21.23;98.24
42289;BME280;30230;47.520;19.016;2023-07-24T02:12:02;98750.50;;;21.17;98.00
42289;BME280;30230;47.520;19.016;2023-07-24T02:14:02;98745.75;;;21.28;97.38
42289;BME280;30230;47.520;19.016;2023-07-24T02:16:03;98750.84;;;21.11;98.84
42289;BME280;30230;47.520;19.016;2023-07-24T02:18:04;98755.78;;;21.08;99.33
42289;BME280;30230;47.520;19.016;2023-07-24T02:20:05;98754.31;;;21.21;98.23
42289;BME280;30230;47.520;19.016;2023-07-24T02:22:05;98759.28;;;21.19;98.43
42289;BME280;30230;47.520;19.016;2023-07-24T02:24:06;98762.63;;;21.11;98.96
42289;BME280;30230;47.520;19.016;2023-07-24T02:26:06;98762.09;;;21.09;99.37
42289;BME280;30230;47.520;19.016;2023-07-24T02:28:06;98742.09;;;20.98;99.69
42289;BME280;30230;47.520;19.016;2023-07-24T02:30:07;98747.34;;;21.00;100.00
42289;BME280;30230;47.520;19.016;2023-07-24T02:32:08;98762.94;;;21.10;99.83
42289;BME280;30230;47.520;19.016;2023-07-24T02:34:08;98745.69;;;20.99;99.70
42289;BME280;30230;47.520;19.016;2023-07-24T02:36:09;98755.72;;;21.14;100.00
42289;BME280;30230;47.520;19.016;2023-07-24T02:38:09;98759.63;;;21.07;100.00
42289;BME280;30230;47.520;19.016;2023-07-24T02:40:10;98757.22;;;21.01;99.74
42289;BME280;30230;47.520;19.016;2023-07-24T02:42:10;98748.38;;;21.09;99.42
42289;BME280;30230;47.520;19.016;2023-07-24T02:44:12;98753.34;;;21.02;99.69
42289;BME280;30230;47.520;19.016;2023-07-24T02:46:12;98760.47;;;21.03;100.00
42289;BME280;30230;47.520;19.016;2023-07-24T02:48:12;98758.91;;;20.92;100.00
42289;BME280;30230;47.520;19.016;2023-07-24T02:50:13;98746.56;;;20.89;100.00
42289;BME280;30230;47.520;19.016;2023-07-24T02:52:13;98759.66;;;21.02;100.00
42289;BME280;30230;47.520;19.016;2023-07-24T02:54:14;98750.09;;;20.95;100.00
42289;BME280;30230;47.520;19.016;2023-07-24T02:56:14;98744.03;;;20.98;100.00
42289;BME280;30230;47.520;19.016;2023-07-24T02:58:14;98755.84;;;20.98;100.00
42289;BME280;30230;47.520;19.016;2023-07-24T03:00:15;98752.25;;;21.03;100.00
42289;BME280;30230;47.520;19.016;2023-07-24T03:02:15;98759.88;;;21.11;100.00
42289;BME280;30230;47.520;19.016;2023-07-24T03:04:16;98744.59;;;21.00;100.00
42289;BME280;30230;47.520;19.016;2023-07-24T03:06:16;98747.03;;;21.01;100.00
42289;BME280;30230;47.520;19.016;2023-07-24T03:08:16;98751.41;;;21.02;100.00
42289;BME280;30230;47.520;19.016;2023-07-24T03:10:17;98742.59;;;21.11;99.67
42289;BME280;30230;47.520;19.016;2023-07-24T03:12:17;98734.19;;;20.92;100.00
42289;BME280;30230;47.520;19.016;2023-07-24T03:14:18;98744.84;;;20.98;100.00
42289;BME280;30230;47.520;19.016;2023-07-24T03:16:18;98758.59;;;20.93;100.00
42289;BME280;30230;47.520;19.016;2023-07-24T03:18:21;98739.97;;;20.90;100.00
42289;BME280;30230;47.520;19.016;2023-07-24T03:20:21;98736.72;;;20.88;100.00
42289;BME280;30230;47.520;19.016;2023-07-24T03:22:22;98741.88;;;20.95;100.00
42289;BME280;30230;47.520;19.016;2023-07-24T03:24:22;98738.00;;;21.01;100.00
42289;BME280;30230;47.520;19.016;2023-07-24T03:26:23;98733.34;;;20.96;100.00
42289;BME280;30230;47.520;19.016;2023-07-24T03:28:23;98731.75;;;20.90;100.00
42289;BME280;30230;47.520;19.016;2023-07-24T03:30:24;98730.66;;;20.86;100.00
42289;BME280;30230;47.520;19.016;2023-07-24T03:32:24;98726.78;;;20.92;100.00
42289;BME280;30230;47.520;19.016;2023-07-24T03:34:24;98738.31;;;20.94;100.00
42289;BME280;30230;47.520;19.016;2023-07-24T03:36:25;98727.38;;;20.89;100.00
42289;BME280;30230;47.520;19.016;2023-07-24T03:38:25;98720.53;;;20.81;100.00
42289;BME280;30230;47.520;19.016;2023-07-24T03:40:26;98728.19;;;20.90;100.00
42289;BME280;30230;47.520;19.016;2023-07-24T03:42:27;98730.53;;;21.06;100.00
42289;BME280;30230;47.520;19.016;2023-07-24T03:44:28;98724.81;;;20.98;100.00
42289;BME280;30230;47.520;19.016;2023-07-24T03:46:28;98726.72;;;21.02;100.00
42289;BME280;30230;47.520;19.016;2023-07-24T03:48:29;98725.56;;;21.08;100.00
42289;BME280;30230;47.520;19.016;2023-07-24T03:50:29;98736.88;;;21.02;100.00
42289;BME280;30230;47.520;19.016;2023-07-24T03:52:30;98733.38;;;20.91;100.00
42289;BME280;30230;47.520;19.016;2023-07-24T03:54:30;98728.47;;;20.88;100.00
42289;BME280;30230;47.520;19.016;2023-07-24T03:56:30;98719.75;;;20.76;100.00
42289;BME280;30230;47.520;19.016;2023-07-24T03:58:31;98730.97;;;20.85;100.00
42289;BME280;30230;47.520;19.016;2023-07-24T04:00:31;98716.44;;;20.79;100.00
42289;BME280;30230;47.520;19.016;2023-07-24T04:02:31;98724.09;;;20.82;100.00
42289;BME280;30230;47.520;19.016;2023-07-24T04:04:32;98731.00;;;20.79;100.00
42289;BME280;30230;47.520;19.016;2023-07-24T04:06:33;98718.63;;;20.77;100.00
42289;BME280;30230;47.520;19.016;2023-07-24T04:08:33;98729.38;;;20.73;100.00
42289;BME280;30230;47.520;19.016;2023-07-24T04:10:33;98733.47;;;20.76;100.00
42289;BME280;30230;47.520;19.016;2023-07-24T04:12:34;98741.91;;;20.90;100.00
42289;BME280;30230;47.520;19.016;2023-07-24T04:14:34;98718.66;;;20.72;100.00
42289;BME280;30230;47.520;19.016;2023-07-24T04:16:35;98728.00;;;20.71;100.00
42289;BME280;30230;47.520;19.016;2023-07-24T04:18:35;98738.97;;;20.76;100.00
42289;BME280;30230;47.520;19.016;2023-07-24T04:20:37;98730.72;;;20.76;100.00
42289;BME280;30230;47.520;19.016;2023-07-24T04:22:37;98718.63;;;20.77;100.00
42289;BME280;30230;47.520;19.016;2023-07-24T04:24:37;98714.53;;;20.74;100.00
42289;BME280;30230;47.520;19.016;2023-07-24T04:26:38;98725.47;;;20.85;100.00
42289;BME280;30230;47.520;19.016;2023-07-24T04:28:39;98717.75;;;20.87;100.00
42289;BME280;30230;47.520;19.016;2023-07-24T04:30:40;98726.78;;;20.92;100.00
42289;BME280;30230;47.520;19.016;2023-07-24T04:32:40;98731.44;;;20.92;100.00
42289;BME280;30230;47.520;19.016;2023-07-24T04:34:41;98727.84;;;20.96;100.00
42289;BME280;30230;47.520;19.016;2023-07-24T04:36:41;98736.09;;;20.96;100.00
42289;BME280;30230;47.520;19.016;2023-07-24T04:38:41;98735.81;;;20.98;100.00
42289;BME280;30230;47.520;19.016;2023-07-24T04:40:44;98732.47;;;21.06;100.00
42289;BME280;30230;47.520;19.016;2023-07-24T04:42:45;98731.94;;;21.04;100.00
42289;BME280;30230;47.520;19.016;2023-07-24T04:44:45;98733.34;;;20.96;100.00
42289;BME280;30230;47.520;19.016;2023-07-24T04:46:46;98727.56;;;20.98;100.00
42289;BME280;30230;47.520;19.016;2023-07-24T04:48:46;98736.53;;;21.08;100.00
42289;BME280;30230;47.520;19.016;2023-07-24T04:50:46;98740.41;;;21.07;100.00
42289;BME280;30230;47.520;19.016;2023-07-24T04:52:52;98735.50;;;21.04;100.00
42289;BME280;30230;47.520;19.016;2023-07-24T04:54:53;98742.06;;;21.03;100.00
42289;BME280;30230;47.520;19.016;2023-07-24T04:56:53;98742.38;;;21.02;100.00
42289;BME280;30230;47.520;19.016;2023-07-24T04:58:53;98742.09;;;20.98;100.00
42289;BME280;30230;47.520;19.016;2023-07-24T05:00:54;98744.00;;;21.03;100.00
42289;BME280;30230;47.520;19.016;2023-07-24T05:02:54;98740.19;;;21.04;100.00
42289;BME280;30230;47.520;19.016;2023-07-24T05:04:54;98745.91;;;21.07;100.00
42289;BME280;30230;47.520;19.016;2023-07-24T05:06:55;98755.19;;;21.17;100.00
42289;BME280;30230;47.520;19.016;2023-07-24T05:08:55;98746.94;;;21.17;100.00
42289;BME280;30230;47.520;19.016;2023-07-24T05:10:57;98741.41;;;21.22;100.00
42289;BME280;30230;47.520;19.016;2023-07-24T05:12:58;98739.81;;;21.16;100.00
42289;BME280;30230;47.520;19.016;2023-07-24T05:15:01;98741.13;;;21.23;100.00
42289;BME280;30230;47.520;19.016;2023-07-24T05:17:01;98733.97;;;21.22;100.00
42289;BME280;30230;47.520;19.016;2023-07-24T05:19:02;98741.38;;;21.27;100.00
42289;BME280;30230;47.520;19.016;2023-07-24T05:21:02;98742.47;;;21.31;100.00
42289;BME280;30230;47.520;19.016;2023-07-24T05:23:02;98737.22;;;21.29;100.00
42289;BME280;30230;47.520;19.016;2023-07-24T05:25:03;98739.41;;;21.38;100.00
42289;BME280;30230;47.520;19.016;2023-07-24T05:27:04;98747.88;;;21.41;100.00
42289;BME280;30230;47.520;19.016;2023-07-24T05:29:05;98743.69;;;21.49;100.00
42289;BME280;30230;47.520;19.016;2023-07-24T05:31:05;98746.13;;;21.55;100.00
42289;BME280;30230;47.520;19.016;2023-07-24T05:33:07;98755.16;;;21.61;100.00
42289;BME280;30230;47.520;19.016;2023-07-24T05:35:08;98744.31;;;21.70;100.00
42289;BME280;30230;47.520;19.016;2023-07-24T05:37:08;98745.41;;;21.74;100.00
42289;BME280;30230;47.520;19.016;2023-07-24T05:39:09;98745.34;;;21.79;100.00
42289;BME280;30230;47.520;19.016;2023-07-24T05:41:09;98746.97;;;21.80;100.00
42289;BME280;30230;47.520;19.016;2023-07-24T05:43:09;98758.53;;;21.82;100.00
42289;BME280;30230;47.520;19.016;2023-07-24T05:45:10;98746.06;;;21.90;100.00
42289;BME280;30230;47.520;19.016;2023-07-24T05:47:15;98744.13;;;21.90;100.00
42289;BME280;30230;47.520;19.016;2023-07-24T05:49:15;98743.50;;;21.98;100.00
42289;BME280;30230;47.520;19.016;2023-07-24T05:51:16;98745.59;;;22.06;100.00
42289;BME280;30230;47.520;19.016;2023-07-24T05:53:16;98743.53;;;22.22;100.00
42289;BME280;30230;47.520;19.016;2023-07-24T05:55:17;98740.28;;;22.20;100.00
42289;BME280;30230;47.520;19.016;2023-07-24T05:57:17;98737.75;;;22.24;100.00
42289;BME280;30230;47.520;19.016;2023-07-24T05:59:18;98740.72;;;22.27;100.00
42289;BME280;30230;47.520;19.016;2023-07-24T06:01:18;98732.41;;;22.32;100.00
42289;BME280;30230;47.520;19.016;2023-07-24T06:03:18;98733.94;;;22.44;100.00
42289;BME280;30230;47.520;19.016;2023-07-24T06:05:19;98727.03;;;22.46;100.00
42289;BME280;30230;47.520;19.016;2023-07-24T06:07:20;98728.59;;;22.52;100.00
42289;BME280;30230;47.520;19.016;2023-07-24T06:09:20;98723.31;;;22.56;100.00
42289;BME280;30230;47.520;19.016;2023-07-24T06:11:20;98727.13;;;22.60;100.00
42289;BME280;30230;47.520;19.016;2023-07-24T06:13:23;98724.38;;;22.60;100.00
42289;BME280;30230;47.520;19.016;2023-07-24T06:15:23;98729.44;;;22.72;100.00
42289;BME280;30230;47.520;19.016;2023-07-24T06:17:23;98719.09;;;22.82;100.00
42289;BME280;30230;47.520;19.016;2023-07-24T06:19:24;98722.63;;;22.88;100.00
42289;BME280;30230;47.520;19.016;2023-07-24T06:21:24;98725.94;;;22.90;100.00
42289;BME280;30230;47.520;19.016;2023-07-24T06:23:25;98732.69;;;22.98;98.97
42289;BME280;30230;47.520;19.016;2023-07-24T06:25:25;98728.53;;;23.00;98.69
42289;BME280;30230;47.520;19.016;2023-07-24T06:27:25;98727.53;;;23.10;98.77
42289;BME280;30230;47.520;19.016;2023-07-24T06:29:26;98719.50;;;23.13;97.72
42289;BME280;30230;47.520;19.016;2023-07-24T06:31:27;98723.22;;;23.23;97.33
42289;BME280;30230;47.520;19.016;2023-07-24T06:33:27;98725.81;;;23.33;97.17
42289;BME280;30230;47.520;19.016;2023-07-24T06:35:28;98721.34;;;23.37;97.56
42289;BME280;30230;47.520;19.016;2023-07-24T06:37:28;98723.78;;;23.38;97.53
42289;BME280;30230;47.520;19.016;2023-07-24T06:39:28;98731.38;;;23.47;97.15
42289;BME280;30230;47.520;19.016;2023-07-24T06:41:29;98716.28;;;23.58;97.14
42289;BME280;30230;47.520;19.016;2023-07-24T06:43:29;98720.06;;;23.62;97.38
42289;BME280;30230;47.520;19.016;2023-07-24T06:45:29;98732.06;;;23.71;95.38
42289;BME280;30230;47.520;19.016;2023-07-24T06:47:30;98728.19;;;23.72;94.07
42289;BME280;30230;47.520;19.016;2023-07-24T06:49:30;98723.19;;;23.88;94.51
42289;BME280;30230;47.520;19.016;2023-07-24T06:51:31;98724.69;;;23.99;93.57
42289;BME280;30230;47.520;19.016;2023-07-24T06:53:31;98715.88;;;23.97;94.14
42289;BME280;30230;47.520;19.016;2023-07-24T06:55:31;98719.06;;;24.04;94.44
42289;BME280;30230;47.520;19.016;2023-07-24T06:57:32;98716.59;;;24.16;95.46
42289;BME280;30230;47.520;19.016;2023-07-24T06:59:32;98725.81;;;24.26;95.42
42289;BME280;30230;47.520;19.016;2023-07-24T07:01:33;98721.03;;;24.45;91.34
42289;BME280;30230;47.520;19.016;2023-07-24T07:03:34;98715.91;;;24.52;90.94
42289;BME280;30230;47.520;19.016;2023-07-24T07:05:37;98712.31;;;24.52;89.78
42289;BME280;30230;47.520;19.016;2023-07-24T07:07:37;98712.72;;;24.59;89.56
42289;BME280;30230;47.520;19.016;2023-07-24T07:09:39;98720.16;;;24.72;89.02
42289;BME280;30230;47.520;19.016;2023-07-24T07:11:39;98707.44;;;24.85;91.00
42289;BME280;30230;47.520;19.016;2023-07-24T07:13:40;98707.63;;;25.02;88.73
42289;BME280;30230;47.520;19.016;2023-07-24T07:15:40;98700.84;;;25.08;88.40
42289;BME280;30230;47.520;19.016;2023-07-24T07:17:41;98697.34;;;25.16;87.59
42289;BME280;30230;47.520;19.016;2023-07-24T07:19:41;98700.03;;;25.30;87.83
42289;BME280;30230;47.520;19.016;2023-07-24T07:21:42;98693.31;;;25.45;87.35
42289;BME280;30230;47.520;19.016;2023-07-24T07:23:42;98683.75;;;25.51;88.16
42289;BME280;30230;47.520;19.016;2023-07-24T07:25:43;98678.00;;;25.70;86.74
42289;BME280;30230;47.520;19.016;2023-07-24T07:27:45;98686.75;;;25.86;87.02
42289;BME280;30230;47.520;19.016;2023-07-24T07:29:45;98698.53;;;26.00;84.10
42289;BME280;30230;47.520;19.016;2023-07-24T07:31:46;98683.91;;;26.08;86.15
42289;BME280;30230;47.520;19.016;2023-07-24T07:33:46;98686.06;;;26.20;86.88
42289;BME280;30230;47.520;19.016;2023-07-24T07:35:46;98685.13;;;26.33;84.26
42289;BME280;30230;47.520;19.016;2023-07-24T07:37:47;98694.31;;;26.42;82.35
42289;BME280;30230;47.520;19.016;2023-07-24T07:39:47;98677.38;;;26.53;81.49
42289;BME280;30230;47.520;19.016;2023-07-24T07:41:47;98677.06;;;26.71;80.91
42289;BME280;30230;47.520;19.016;2023-07-24T07:43:48;98675.63;;;26.83;81.58
42289;BME280;30230;47.520;19.016;2023-07-24T07:45:48;98665.03;;;26.85;81.81
42289;BME280;30230;47.520;19.016;2023-07-24T07:47:49;98676.28;;;26.97;80.50
42289;BME280;30230;47.520;19.016;2023-07-24T07:49:49;98668.16;;;27.09;80.51
42289;BME280;30230;47.520;19.016;2023-07-24T07:51:49;98671.72;;;27.27;80.78
42289;BME280;30230;47.520;19.016;2023-07-24T07:53:50;98669.59;;;27.33;80.28
42289;BME280;30230;47.520;19.016;2023-07-24T07:55:57;98667.28;;;27.43;80.03
42289;BME280;30230;47.520;19.016;2023-07-24T07:57:58;98674.63;;;27.48;76.65
42289;BME280;30230;47.520;19.016;2023-07-24T07:59:58;98675.59;;;27.61;76.15
42289;BME280;30230;47.520;19.016;2023-07-24T08:01:59;98675.72;;;27.73;77.02
42289;BME280;30230;47.520;19.016;2023-07-24T08:03:59;98664.78;;;27.76;75.35
42289;BME280;30230;47.520;19.016;2023-07-24T08:06:00;98669.28;;;27.98;75.35
42289;BME280;30230;47.520;19.016;2023-07-24T08:08:00;98672.66;;;28.13;73.68
42289;BME280;30230;47.520;19.016;2023-07-24T08:10:01;98676.84;;;28.19;69.87
42289;BME280;30230;47.520;19.016;2023-07-24T08:12:02;98671.06;;;28.33;71.63
42289;BME280;30230;47.520;19.016;2023-07-24T08:14:02;98666.66;;;28.32;69.49
42289;BME280;30230;47.520;19.016;2023-07-24T08:16:03;98662.34;;;28.43;68.44
42289;BME280;30230;47.520;19.016;2023-07-24T08:18:04;98663.25;;;28.35;66.79
42289;BME280;30230;47.520;19.016;2023-07-24T08:20:05;98652.94;;;28.35;69.99
42289;BME280;30230;47.520;19.016;2023-07-24T08:22:06;98667.72;;;28.48;70.58
42289;BME280;30230;47.520;19.016;2023-07-24T08:24:06;98654.59;;;28.57;66.24
42289;BME280;30230;47.520;19.016;2023-07-24T08:26:07;98635.53;;;28.47;65.76
42289;BME280;30230;47.520;19.016;2023-07-24T08:28:07;98664.09;;;28.77;64.78
42289;BME280;30230;47.520;19.016;2023-07-24T08:30:08;98675.06;;;28.73;66.63
42289;BME280;30230;47.520;19.016;2023-07-24T08:32:08;98665.84;;;28.81;66.10
42289;BME280;30230;47.520;19.016;2023-07-24T08:34:09;98660.75;;;28.84;66.60
42289;BME280;30230;47.520;19.016;2023-07-24T08:36:09;98659.34;;;28.77;67.02
42289;BME280;30230;47.520;19.016;2023-07-24T08:38:11;98668.31;;;29.04;65.42
42289;BME280;30230;47.520;19.016;2023-07-24T08:40:12;98656.94;;;28.97;64.73
42289;BME280;30230;47.520;19.016;2023-07-24T08:42:12;98669.50;;;29.15;64.42
42289;BME280;30230;47.520;19.016;2023-07-24T08:44:13;98653.91;;;29.23;63.83
42289;BME280;30230;47.520;19.016;2023-07-24T08:46:14;98659.88;;;29.33;62.34
42289;BME280;30230;47.520;19.016;2023-07-24T08:48:15;98655.50;;;29.45;63.53
42289;BME280;30230;47.520;19.016;2023-07-24T08:50:16;98658.34;;;29.57;60.52
42289;BME280;30230;47.520;19.016;2023-07-24T08:52:17;98653.69;;;29.61;60.59
42289;BME280;30230;47.520;19.016;2023-07-24T08:54:19;98648.72;;;29.67;60.67
42289;BME280;30230;47.520;19.016;2023-07-24T08:56:20;98640.75;;;29.77;61.11
42289;BME280;30230;47.520;19.016;2023-07-24T08:58:20;98640.53;;;29.95;60.44
42289;BME280;30230;47.520;19.016;2023-07-24T09:00:21;98653.56;;;30.15;59.93
42289;BME280;30230;47.520;19.016;2023-07-24T09:02:21;98645.78;;;30.21;58.45
42289;BME280;30230;47.520;19.016;2023-07-24T09:04:22;98643.38;;;30.19;57.87
42289;BME280;30230;47.520;19.016;2023-07-24T09:06:22;98641.81;;;30.34;58.33
42289;BME280;30230;47.520;19.016;2023-07-24T09:08:36;98638.00;;;30.39;58.84
42289;BME280;30230;47.520;19.016;2023-07-24T09:10:37;98627.78;;;30.43;55.37
42289;BME280;30230;47.520;19.016;2023-07-24T09:12:37;98645.94;;;30.65;55.89
42289;BME280;30230;47.520;19.016;2023-07-24T09:14:38;98639.69;;;30.68;55.18
42289;BME280;30230;47.520;19.016;2023-07-24T09:16:39;98631.31;;;30.80;55.63
42289;BME280;30230;47.520;19.016;2023-07-24T09:18:43;98637.19;;;30.91;54.54
42289;BME280;30230;47.520;19.016;2023-07-24T09:20:44;98630.22;;;30.97;54.33
42289;BME280;30230;47.520;19.016;2023-07-24T09:22:52;98640.16;;;31.10;53.42
42289;BME280;30230;47.520;19.016;2023-07-24T09:24:54;98637.22;;;31.19;52.17
42289;BME280;30230;47.520;19.016;2023-07-24T09:26:55;98641.25;;;31.21;52.44
42289;BME280;30230;47.520;19.016;2023-07-24T09:28:55;98629.63;;;31.31;52.24
42289;BME280;30230;47.520;19.016;2023-07-24T09:30:58;98636.16;;;31.23;49.46
42289;BME280;30230;47.520;19.016;2023-07-24T09:32:59;98617.66;;;31.31;51.74
42289;BME280;30230;47.520;19.016;2023-07-24T09:34:59;98622.59;;;31.37;52.35
42289;BME280;30230;47.520;19.016;2023-07-24T09:36:59;98616.41;;;31.44;52.38
42289;BME280;30230;47.520;19.016;2023-07-24T09:39:00;98620.13;;;31.64;54.32
42289;BME280;30230;47.520;19.016;2023-07-24T09:41:02;98616.66;;;31.83;50.89
42289;BME280;30230;47.520;19.016;2023-07-24T09:43:03;98605.72;;;31.78;49.51
42289;BME280;30230;47.520;19.016;2023-07-24T09:45:13;98609.06;;;31.83;48.10
42289;BME280;30230;47.520;19.016;2023-07-24T09:47:14;98595.56;;;32.01;49.62
42289;BME280;30230;47.520;19.016;2023-07-24T09:49:14;98588.34;;;32.00;50.10
42289;BME280;30230;47.520;19.016;2023-07-24T09:51:15;98591.38;;;32.27;48.85
42289;BME280;30230;47.520;19.016;2023-07-24T09:53:39;98597.13;;;32.34;49.07
42289;BME280;30230;47.520;19.016;2023-07-24T09:55:49;98599.00;;;32.46;47.35
42289;BME280;30230;47.520;19.016;2023-07-24T09:57:53;98599.22;;;32.37;45.53
42289;BME280;30230;47.520;19.016;2023-07-24T09:59:56;98593.97;;;32.35;47.26
42289;BME280;30230;47.520;19.016;2023-07-24T10:01:57;98597.91;;;32.50;44.87
42289;BME280;30230;47.520;19.016;2023-07-24T10:03:58;98585.09;;;32.49;43.79
42289;BME280;30230;47.520;19.016;2023-07-24T10:05:59;98579.22;;;32.54;44.48
42289;BME280;30230;47.520;19.016;2023-07-24T10:08:00;98578.44;;;32.73;44.14
42289;BME280;30230;47.520;19.016;2023-07-24T10:10:01;98576.03;;;32.91;44.46
42289;BME280;30230;47.520;19.016;2023-07-24T10:12:02;98580.00;;;32.90;43.13
42289;BME280;30230;47.520;19.016;2023-07-24T10:14:03;98579.84;;;33.02;43.20
42289;BME280;30230;47.520;19.016;2023-07-24T10:16:04;98573.13;;;33.07;43.50
42289;BME280;30230;47.520;19.016;2023-07-24T10:18:08;98583.00;;;33.01;41.84
42289;BME280;30230;47.520;19.016;2023-07-24T10:20:10;98570.19;;;33.19;42.39
42289;BME280;30230;47.520;19.016;2023-07-24T10:22:18;98564.63;;;33.23;41.75
42289;BME280;30230;47.520;19.016;2023-07-24T10:24:19;98573.38;;;33.40;41.63
42289;BME280;30230;47.520;19.016;2023-07-24T10:26:24;98562.91;;;33.37;42.44
42289;BME280;30230;47.520;19.016;2023-07-24T10:28:34;98556.34;;;33.49;43.74
42289;BME280;30230;47.520;19.016;2023-07-24T10:30:34;98553.41;;;33.65;42.29
42289;BME280;30230;47.520;19.016;2023-07-24T10:32:45;98553.38;;;33.61;40.96